Robert G. Stone, Jr. — WDD4596 — position and weather

sailwx.info

Track history (hours):
 
Tides and Currents Weather Stations Pressure Air Temp Water Temp Dewpoint Dewpoint Depression Visibility Wind Speed Wind Dir Waves Ship Positions

Robert G. Stone, Jr.

Owner: Kirby Inland Marine, LP, Houston, TX. More information available from US FCC via Universal Licensing System and Coast Guard Vessel Documentation Center.

Last reported at 2015-Mar-24 08:33 UTC. Time now 2015-Mar-28 04:02 UTC.
Position N 30°00' W 089°58'.

Length 27 m; draft 3.1 m.

Type: Towing. MMSI: 367146780.

Date/timePositionNaut miles runAvg speedWind from/ knotsBaromVisibWave heightAir tempDewpointWater temp
2015-Mar-24 08:33N 30°00' W 089°58'2 1.3
2015-Mar-24 07:13N 29°60' W 089°60'1 2.1
2015-Mar-24 06:33N 29°59' W 090°01'1 1.4
2015-Mar-24 05:32N 29°58' W 090°02'1 0.6
2015-Mar-24 04:33N 29°57' W 090°01'1 1.0
2015-Mar-24 03:32N 29°57' W 090°01'1 1.3
2015-Mar-24 02:32N 29°56' W 089°59'0 0.0
2015-Mar-24 01:33N 29°56' W 089°59'0 0.0
2015-Mar-24 00:32N 29°56' W 089°59'0 0.0
2015-Mar-23 23:19N 29°56' W 089°59'0 0.0
2015-Mar-23 22:27N 29°56' W 089°59'  
2015-Mar-15 00:33N 29°21' W 094°49'10 9.4
2015-Mar-14 23:29N 29°31' W 094°53'8 9.2
2015-Mar-14 22:33N 29°37' W 094°59'2 1.7
2015-Mar-14 21:33N 29°36' W 095°01'0 0.0
2015-Mar-14 20:33N 29°36' W 095°01'0 0.0
2015-Mar-14 19:33N 29°36' W 095°01'0 0.0
2015-Mar-14 18:33N 29°36' W 095°01'0 0.0
2015-Mar-14 17:33N 29°36' W 095°01'0 0.0
2015-Mar-14 16:33N 29°36' W 095°01'0 0.0
2015-Mar-14 15:33N 29°36' W 095°01'0 0.0
2015-Mar-14 14:33N 29°36' W 095°01'0 0.0
2015-Mar-14 13:33N 29°36' W 095°01'0 0.0
2015-Mar-14 12:33N 29°36' W 095°01'0 0.0
2015-Mar-14 11:33N 29°36' W 095°01'0 0.0
2015-Mar-14 10:33N 29°36' W 095°01'0 0.0
2015-Mar-14 09:33N 29°36' W 095°01'0 0.0
2015-Mar-14 08:33N 29°36' W 095°01'  
Track history (hours):
 
Tides and Currents Weather Stations Pressure Air Temp Water Temp Dewpoint Dewpoint Depression Visibility Wind Speed Wind Dir Waves Ship Positions

Robert G. Stone, Jr.

Owner: Kirby Inland Marine, LP, Houston, TX. More information available from US FCC via Universal Licensing System and Coast Guard Vessel Documentation Center.

Last reported at 2015-Mar-24 08:33 UTC. Time now 2015-Mar-28 04:02 UTC.
Position N 30°00' W 089°58'.

Length 27 m; draft 3.1 m.

Type: Towing. MMSI: 367146780.

Date/timePositionNaut miles runAvg speedWind from/ knotsBaromVisibWave heightAir tempDewpointWater temp
2015-Mar-24 08:33N 30°00' W 089°58'2 1.3
2015-Mar-24 07:13N 29°60' W 089°60'1 2.1
2015-Mar-24 06:33N 29°59' W 090°01'1 1.4
2015-Mar-24 05:32N 29°58' W 090°02'1 0.6
2015-Mar-24 04:33N 29°57' W 090°01'1 1.0
2015-Mar-24 03:32N 29°57' W 090°01'1 1.3
2015-Mar-24 02:32N 29°56' W 089°59'0 0.0
2015-Mar-24 01:33N 29°56' W 089°59'0 0.0
2015-Mar-24 00:32N 29°56' W 089°59'0 0.0
2015-Mar-23 23:19N 29°56' W 089°59'0 0.0
2015-Mar-23 22:27N 29°56' W 089°59'  
2015-Mar-15 00:33N 29°21' W 094°49'10 9.4
2015-Mar-14 23:29N 29°31' W 094°53'8 9.2
2015-Mar-14 22:33N 29°37' W 094°59'2 1.7
2015-Mar-14 21:33N 29°36' W 095°01'0 0.0
2015-Mar-14 20:33N 29°36' W 095°01'0 0.0
2015-Mar-14 19:33N 29°36' W 095°01'0 0.0
2015-Mar-14 18:33N 29°36' W 095°01'0 0.0
2015-Mar-14 17:33N 29°36' W 095°01'0 0.0
2015-Mar-14 16:33N 29°36' W 095°01'0 0.0
2015-Mar-14 15:33N 29°36' W 095°01'0 0.0
2015-Mar-14 14:33N 29°36' W 095°01'0 0.0
2015-Mar-14 13:33N 29°36' W 095°01'0 0.0
2015-Mar-14 12:33N 29°36' W 095°01'0 0.0
2015-Mar-14 11:33N 29°36' W 095°01'0 0.0
2015-Mar-14 10:33N 29°36' W 095°01'0 0.0
2015-Mar-14 09:33N 29°36' W 095°01'0 0.0
2015-Mar-14 08:33N 29°36' W 095°01'  

Dump ship's entire track history